Time;durP1;ratioP1;P1;durP2;ratioP2;P2;SDS_P1;SDS_P2;PMS_P1;PMS_P2;Temp;Humidity;BMP_temperature;BMP_pressure;BME280_temperature;BME280_humidity;BME280_pressure;Samples;Min_cycle;Max_cycle;Signal;HPM_P1;HPM_P2
2021/12/28 00:02:23;;;;;;;20.65;11.77;;;2.80;99.90;;;;;;5062221;28;20028;-74
2021/12/28 00:04:48;;;;;;;20.85;12.55;;;2.80;99.90;;;;;;5062053;28;20017;-74
2021/12/28 00:07:14;;;;;;;22.10;12.95;;;2.80;99.90;;;;;;5062278;28;20043;-74
2021/12/28 00:09:39;;;;;;;21.38;11.40;;;2.80;99.90;;;;;;5061603;28;20103;-74
2021/12/28 00:12:05;;;;;;;16.58;11.38;;;2.80;99.90;;;;;;5061661;28;20504;-74
2021/12/28 00:14:36;;;;;;;;;;;2.80;99.90;;;;;;5061850;28;20032;-74
2021/12/28 00:19:46;;;;;;;20.80;13.63;;;2.90;99.90;;;;;;5061244;28;20063;-74
2021/12/28 00:22:11;;;;;;;22.92;12.65;;;2.90;99.90;;;;;;5061436;28;20067;-74
2021/12/28 00:24:37;;;;;;;18.60;12.70;;;2.80;99.90;;;;;;5061063;28;20043;-74
2021/12/28 00:27:03;;;;;;;19.27;12.88;;;2.80;99.90;;;;;;5061404;28;20028;-75
2021/12/28 00:29:29;;;;;;;18.20;11.07;;;2.80;99.90;;;;;;5060797;28;20036;-74
2021/12/28 00:31:55;;;;;;;21.60;14.25;;;2.80;99.90;;;;;;5060634;28;20013;-75
2021/12/28 00:34:20;;;;;;;19.50;12.27;;;2.80;99.90;;;;;;5060565;28;20044;-74
2021/12/28 00:36:46;;;;;;;20.38;11.40;;;2.80;99.90;;;;;;5060534;28;20466;-74
2021/12/28 00:39:12;;;;;;;18.77;11.88;;;2.80;99.90;;;;;;5060897;28;20036;-74
2021/12/28 00:41:38;;;;;;;19.98;13.27;;;2.80;99.90;;;;;;5059950;28;20092;-74
2021/12/28 00:44:04;;;;;;;17.27;10.25;;;2.80;99.90;;;;;;5060787;28;20113;-74
2021/12/28 00:46:29;;;;;;;20.92;11.15;;;2.80;99.90;;;;;;5060202;28;20393;-74
2021/12/28 00:48:55;;;;;;;21.00;11.40;;;2.80;99.90;;;;;;5060851;28;20032;-74
2021/12/28 00:51:21;;;;;;;21.45;12.13;;;2.90;99.90;;;;;;5060223;28;20070;-74
2021/12/28 00:53:46;;;;;;;20.77;11.30;;;2.90;99.90;;;;;;5060391;28;20063;-74
2021/12/28 00:56:12;;;;;;;18.30;10.68;;;2.90;99.90;;;;;;5060700;28;20483;-74
2021/12/28 00:58:37;;;;;;;14.93;9.82;;;2.90;99.90;;;;;;5060507;28;20435;-74
2021/12/28 01:01:04;;;;;;;17.75;11.15;;;3.00;99.90;;;;;;5061105;28;20480;-74
2021/12/28 01:03:32;;;;;;;19.10;11.05;;;3.00;99.90;;;;;;5060413;28;20037;-74
2021/12/28 01:05:57;;;;;;;13.90;10.70;;;3.00;99.90;;;;;;5060631;28;20562;-74
2021/12/28 01:08:23;;;;;;;18.17;11.15;;;3.00;99.90;;;;;;5060636;28;20029;-74
2021/12/28 01:10:51;;;;;;;19.35;11.07;;;3.00;99.90;;;;;;5060966;28;20077;-74
2021/12/28 01:13:18;;;;;;;19.50;11.25;;;3.10;99.90;;;;;;5060278;28;20033;-74
2021/12/28 01:15:45;;;;;;;16.05;9.90;;;3.10;99.90;;;;;;5060667;28;20029;-74
2021/12/28 01:18:12;;;;;;;16.77;10.63;;;3.10;99.90;;;;;;5060663;28;20086;-74
2021/12/28 01:20:38;;;;;;;14.52;10.07;;;3.10;99.90;;;;;;5060129;28;20050;-74
2021/12/28 01:23:04;;;;;;;17.20;13.02;;;3.10;99.90;;;;;;5059939;28;20555;-74
2021/12/28 01:25:30;;;;;;;16.45;10.48;;;3.10;99.90;;;;;;5059706;28;20397;-74
2021/12/28 01:27:55;;;;;;;18.15;10.73;;;3.10;99.90;;;;;;5060241;28;20024;-74
2021/12/28 01:30:26;;;;;;;20.20;10.90;;;3.10;99.90;;;;;;5059684;28;20044;-74
2021/12/28 01:32:53;;;;;;;20.88;11.65;;;3.00;99.90;;;;;;5059606;28;20089;-74
2021/12/28 01:35:18;;;;;;;;;;;3.00;99.90;;;;;;5059859;28;20048;-74
2021/12/28 01:37:45;;;;;;;17.00;10.75;;;3.00;99.90;;;;;;5059760;28;20276;-74
2021/12/28 01:40:13;;;;;;;15.25;10.45;;;2.90;99.90;;;;;;5059273;28;20039;-74
2021/12/28 01:43:01;;;;;;;13.35;9.77;;;2.90;99.90;;;;;;5058994;28;20119;-74
2021/12/28 01:45:40;;;;;;;19.38;10.98;;;2.90;99.90;;;;;;5058695;28;20032;-74
2021/12/28 01:48:07;;;;;;;16.33;10.77;;;2.90;99.90;;;;;;5059330;28;20017;-74
2021/12/28 01:50:33;;;;;;;18.50;10.27;;;2.90;99.90;;;;;;5057947;28;20021;-74
2021/12/28 01:52:58;;;;;;;18.23;11.40;;;2.80;99.90;;;;;;5059503;28;20067;-74
2021/12/28 01:55:24;;;;;;;17.42;11.07;;;2.90;99.90;;;;;;5059417;28;20064;-74
2021/12/28 01:57:50;;;;;;;21.15;10.70;;;2.90;99.90;;;;;;5060251;28;20028;-74
2021/12/28 02:00:16;;;;;;;17.90;12.18;;;2.90;99.90;;;;;;5059990;28;20040;-74
2021/12/28 02:02:42;;;;;;;17.30;13.32;;;2.90;99.90;;;;;;5059763;28;20074;-74
2021/12/28 02:05:07;;;;;;;18.73;10.68;;;2.90;99.90;;;;;;5059894;28;20012;-74
2021/12/28 02:07:33;;;;;;;21.58;12.05;;;3.00;99.90;;;;;;5059376;28;20035;-74
2021/12/28 02:09:59;;;;;;;26.63;16.65;;;3.00;99.90;;;;;;5059733;28;20040;-74
2021/12/28 02:12:28;;;;;;;22.38;12.90;;;3.00;99.90;;;;;;5059607;28;20044;-74
2021/12/28 02:14:54;;;;;;;21.33;12.32;;;3.00;99.90;;;;;;5059685;28;20473;-73
2021/12/28 02:17:19;;;;;;;22.58;12.63;;;3.00;99.90;;;;;;5059389;28;20052;-74
2021/12/28 02:19:45;;;;;;;22.00;12.82;;;3.00;99.90;;;;;;5059231;28;20032;-74
2021/12/28 02:22:10;;;;;;;20.67;12.05;;;3.00;99.90;;;;;;5059558;28;20036;-74
2021/12/28 02:24:36;;;;;;;22.08;12.60;;;3.00;99.90;;;;;;5058844;28;20041;-74
2021/12/28 02:27:01;;;;;;;18.15;12.10;;;3.00;99.90;;;;;;5059461;28;20396;-74
2021/12/28 02:29:27;;;;;;;18.50;11.40;;;3.00;99.90;;;;;;5059085;28;20507;-74
2021/12/28 02:31:55;;;;;;;17.75;11.68;;;3.00;99.90;;;;;;5041140;28;20039;-74
2021/12/28 02:34:23;;;;;;;21.05;12.95;;;3.00;99.90;;;;;;5058450;28;20098;-74
2021/12/28 02:36:49;;;;;;;19.35;12.70;;;3.00;99.90;;;;;;5058443;28;20031;-74
2021/12/28 02:39:15;;;;;;;15.98;9.73;;;3.00;99.90;;;;;;5059090;28;20111;-74
2021/12/28 02:41:41;;;;;;;;;;;3.00;99.90;;;;;;5058825;28;20013;-74
2021/12/28 02:44:06;;;;;;;16.73;11.38;;;3.00;99.90;;;;;;5058834;28;20332;-73
2021/12/28 02:46:32;;;;;;;19.77;12.27;;;3.00;99.90;;;;;;5057635;28;20025;-73
2021/12/28 02:48:58;;;;;;;24.73;12.52;;;3.00;99.90;;;;;;5058900;28;20435;-73
2021/12/28 02:51:23;;;;;;;17.17;10.73;;;3.00;99.90;;;;;;5058422;28;20021;-74
2021/12/28 02:53:49;;;;;;;19.85;13.13;;;3.00;99.90;;;;;;5059456;28;20021;-74
2021/12/28 02:56:16;;;;;;;17.33;10.43;;;3.00;99.90;;;;;;5058916;28;20025;-73
2021/12/28 02:58:46;;;;;;;16.75;10.60;;;3.00;99.90;;;;;;5059211;28;20111;-73
2021/12/28 03:01:25;;;;;;;19.40;11.55;;;3.00;99.90;;;;;;5059746;28;20040;-74
2021/12/28 03:03:54;;;;;;;18.33;11.40;;;3.00;99.90;;;;;;5063560;28;20016;-73
2021/12/28 03:06:22;;;;;;;21.75;11.95;;;3.00;99.90;;;;;;5063163;28;20031;-73
2021/12/28 03:08:54;;;;;;;19.00;10.80;;;2.90;99.90;;;;;;5063494;28;20025;-74
2021/12/28 03:11:22;;;;;;;19.33;11.60;;;2.90;99.90;;;;;;5062722;28;20024;-74
2021/12/28 03:13:51;;;;;;;16.13;10.23;;;3.00;99.90;;;;;;5062744;28;20036;-74
2021/12/28 03:16:18;;;;;;;18.55;11.40;;;3.00;99.90;;;;;;5062228;28;20036;-74
2021/12/28 03:18:44;;;;;;;18.13;12.48;;;3.00;99.90;;;;;;5062211;28;20734;-74
2021/12/28 03:21:11;;;;;;;20.13;11.63;;;3.00;99.90;;;;;;5062161;28;20036;-74
2021/12/28 03:23:37;;;;;;;18.08;10.85;;;3.00;99.90;;;;;;5061433;28;20033;-74
2021/12/28 03:26:05;;;;;;;14.60;10.15;;;3.00;99.90;;;;;;5062607;28;20567;-74
2021/12/28 03:28:34;;;;;;;16.15;11.18;;;3.00;99.90;;;;;;5061976;28;20025;-74
2021/12/28 03:31:00;;;;;;;19.00;10.88;;;3.10;99.90;;;;;;5061955;28;20082;-74
2021/12/28 03:33:28;;;;;;;19.50;12.23;;;3.10;99.90;;;;;;5061170;28;20082;-74
2021/12/28 03:35:55;;;;;;;17.92;11.10;;;3.10;99.90;;;;;;5061829;28;20040;-74
2021/12/28 03:38:21;;;;;;;16.10;10.60;;;3.10;99.90;;;;;;5061120;28;20036;-74
2021/12/28 03:40:47;;;;;;;;;;;3.10;99.90;;;;;;5062213;28;20025;-74
2021/12/28 03:43:13;;;;;;;16.20;10.25;;;3.20;99.90;;;;;;5061699;28;19908;-74
2021/12/28 03:45:38;;;;;;;14.73;9.30;;;3.20;99.90;;;;;;5060609;28;20033;-74
2021/12/28 03:48:05;;;;;;;15.00;9.95;;;3.20;99.90;;;;;;5062453;28;20497;-73
2021/12/28 03:50:35;;;;;;;19.80;11.88;;;3.30;99.90;;;;;;5062347;28;20126;-74
2021/12/28 03:53:01;;;;;;;18.67;10.90;;;3.30;99.90;;;;;;5062367;28;20508;-74
2021/12/28 03:55:27;;;;;;;16.20;9.95;;;3.30;99.90;;;;;;5061553;28;20028;-74
2021/12/28 03:57:55;;;;;;;16.33;10.98;;;3.30;99.90;;;;;;5062185;28;20021;-74
2021/12/28 04:00:23;;;;;;;19.55;12.20;;;3.30;99.90;;;;;;5061997;28;20020;-74
2021/12/28 04:02:49;;;;;;;22.40;13.85;;;3.30;99.90;;;;;;5061594;28;20089;-74
2021/12/28 04:05:19;;;;;;;23.05;13.98;;;3.30;99.90;;;;;;5061457;28;20096;-74
2021/12/28 04:07:45;;;;;;;21.25;12.85;;;3.30;99.90;;;;;;5061884;28;20099;-74
2021/12/28 04:10:11;;;;;;;17.58;11.32;;;3.30;99.90;;;;;;5061736;28;20032;-74
2021/12/28 04:12:39;;;;;;;19.77;13.73;;;3.30;99.90;;;;;;5060605;28;20022;-74
2021/12/28 04:15:10;;;;;;;21.55;12.98;;;3.30;99.90;;;;;;5061174;28;20068;-74
2021/12/28 04:17:37;;;;;;;19.92;11.45;;;3.30;99.90;;;;;;5061145;28;20388;-74
2021/12/28 04:20:10;;;;;;;23.65;13.95;;;3.40;99.90;;;;;;5061355;28;20477;-74
2021/12/28 04:22:35;;;;;;;22.98;12.02;;;3.40;99.90;;;;;;5060775;28;20029;-74
2021/12/28 04:25:01;;;;;;;16.92;10.25;;;3.40;99.90;;;;;;5060968;28;20025;-74
2021/12/28 04:27:26;;;;;;;15.30;9.30;;;3.40;99.90;;;;;;5060828;28;20028;-74
2021/12/28 04:29:52;;;;;;;17.85;12.65;;;3.40;99.90;;;;;;5060626;28;20029;-74
2021/12/28 04:32:17;;;;;;;15.70;9.82;;;3.40;99.90;;;;;;5060639;28;20111;-74
2021/12/28 04:34:43;;;;;;;16.92;10.18;;;3.40;99.90;;;;;;5067959;22;20140;-71
2021/12/28 04:37:08;;;;;;;12.60;8.77;;;3.50;99.90;;;;;;5041434;28;20109;-70
2021/12/28 04:39:34;;;;;;;17.00;10.15;;;3.40;99.90;;;;;;5041393;28;20071;-70
2021/12/28 04:41:59;;;;;;;14.90;9.43;;;3.40;99.90;;;;;;5041321;28;20439;-71
2021/12/28 04:44:25;;;;;;;18.02;10.75;;;3.40;99.90;;;;;;5041000;28;20036;-70
2021/12/28 04:46:54;;;;;;;16.77;10.15;;;3.40;99.90;;;;;;5041938;28;20064;-71
2021/12/28 04:49:23;;;;;;;16.15;10.60;;;3.40;99.90;;;;;;5041623;28;20037;-70
2021/12/28 04:51:49;;;;;;;19.85;11.43;;;3.40;99.90;;;;;;5041239;28;20033;-71
2021/12/28 04:54:15;;;;;;;;;;;3.40;99.90;;;;;;5041399;28;20025;-70
2021/12/28 04:56:41;;;;;;;17.85;11.40;;;3.30;99.90;;;;;;5040946;28;19914;-70
2021/12/28 04:59:06;;;;;;;;;;;3.30;99.90;;;;;;5041373;28;20044;-70
2021/12/28 05:01:33;;;;;;;18.30;10.20;;;3.30;99.90;;;;;;5040785;28;20288;-70
2021/12/28 05:03:59;;;;;;;15.30;9.95;;;3.30;99.90;;;;;;5040563;28;20014;-70
2021/12/28 05:06:25;;;;;;;13.35;8.82;;;3.30;99.90;;;;;;5040607;28;20029;-71
2021/12/28 05:08:50;;;;;;;18.42;10.18;;;3.30;99.90;;;;;;5040650;28;20025;-70
2021/12/28 05:11:16;;;;;;;18.90;10.90;;;3.30;99.90;;;;;;5040180;28;20393;-71
2021/12/28 05:13:41;;;;;;;13.98;9.73;;;3.30;99.90;;;;;;5040079;28;20025;-71
2021/12/28 05:16:10;;;;;;;18.38;10.98;;;3.30;99.90;;;;;;5039744;28;20393;-70
2021/12/28 05:18:35;;;;;;;14.65;10.15;;;3.30;99.90;;;;;;5039837;28;20076;-70
2021/12/28 05:21:01;;;;;;;15.82;9.93;;;3.30;99.90;;;;;;5039429;28;20021;-71
2021/12/28 05:23:26;;;;;;;15.73;10.30;;;3.30;99.90;;;;;;5039570;28;20044;-71
2021/12/28 05:25:52;;;;;;;14.88;9.50;;;3.40;99.90;;;;;;5039413;28;20032;-70
2021/12/28 05:28:17;;;;;;;18.80;10.85;;;3.40;99.90;;;;;;5039568;28;20029;-70
2021/12/28 05:30:43;;;;;;;13.95;9.70;;;3.40;99.90;;;;;;5039754;28;20029;-70
2021/12/28 05:33:08;;;;;;;13.45;8.73;;;3.40;99.90;;;;;;5039652;28;20033;-70
2021/12/28 05:35:34;;;;;;;13.98;8.18;;;3.50;99.90;;;;;;5039190;28;20039;-70
2021/12/28 05:38:00;;;;;;;13.73;9.23;;;3.50;99.90;;;;;;5039547;28;20065;-71
2021/12/28 05:40:26;;;;;;;17.83;11.57;;;3.50;99.90;;;;;;5039841;28;20025;-71
2021/12/28 05:42:51;;;;;;;15.38;10.23;;;3.50;99.90;;;;;;5040009;28;20035;-71
2021/12/28 05:45:17;;;;;;;19.17;11.45;;;3.50;99.90;;;;;;5040116;28;20064;-71
2021/12/28 05:47:42;;;;;;;13.75;8.98;;;3.50;99.90;;;;;;5040242;28;20028;-70
2021/12/28 05:50:09;;;;;;;14.75;9.70;;;3.50;99.90;;;;;;5039958;28;20035;-71
2021/12/28 05:52:35;;;;;;;14.90;9.63;;;3.50;99.90;;;;;;5039935;28;20087;-70
2021/12/28 05:55:01;;;;;;;17.00;10.10;;;3.40;99.90;;;;;;5039860;28;20025;-70
2021/12/28 05:57:27;;;;;;;12.27;7.45;;;3.40;99.90;;;;;;5039700;28;20041;-71
2021/12/28 05:59:53;;;;;;;13.35;7.75;;;3.40;99.90;;;;;;5039763;28;20120;-70
2021/12/28 06:02:18;;;;;;;15.18;8.90;;;3.40;99.90;;;;;;5039619;28;20108;-70
2021/12/28 06:04:44;;;;;;;15.45;8.85;;;3.40;99.90;;;;;;5039680;28;20064;-70
2021/12/28 06:07:09;;;;;;;15.63;9.10;;;3.40;99.90;;;;;;5039112;28;20025;-70
2021/12/28 06:09:35;;;;;;;13.57;9.45;;;3.40;99.90;;;;;;5039265;28;20038;-71
2021/12/28 06:12:00;;;;;;;13.20;8.63;;;3.40;99.90;;;;;;5038937;28;20075;-71
2021/12/28 06:14:26;;;;;;;15.90;9.32;;;3.40;99.90;;;;;;5039110;28;20374;-71
2021/12/28 06:16:53;;;;;;;15.48;8.85;;;3.40;99.90;;;;;;5039147;28;20021;-71
2021/12/28 06:19:19;;;;;;;12.82;8.73;;;3.40;99.90;;;;;;5038992;28;20026;-71
2021/12/28 06:21:45;;;;;;;15.23;9.32;;;3.50;99.90;;;;;;5039237;28;20107;-71
2021/12/28 06:24:10;;;;;;;15.27;8.88;;;3.50;99.90;;;;;;5038566;28;20052;-71
2021/12/28 06:26:36;;;;;;;13.43;9.07;;;3.50;99.90;;;;;;5038708;28;20083;-71
2021/12/28 06:29:05;;;;;;;13.20;9.10;;;3.50;99.90;;;;;;5038544;28;20111;-71
2021/12/28 06:31:31;;;;;;;14.73;8.43;;;3.50;99.90;;;;;;5038416;28;20064;-71
2021/12/28 06:34:00;;;;;;;19.20;9.70;;;3.50;99.90;;;;;;5038410;28;20052;-71
2021/12/28 06:36:27;;;;;;;14.52;8.50;;;3.50;99.90;;;;;;5041342;28;20048;-71
2021/12/28 06:38:53;;;;;;;13.88;7.75;;;3.50;99.90;;;;;;5042769;28;20310;-71
2021/12/28 06:41:19;;;;;;;13.35;8.52;;;3.50;99.90;;;;;;5043888;28;20025;-71
2021/12/28 06:43:44;;;;;;;13.80;8.10;;;3.50;99.90;;;;;;5043126;28;20254;-71
2021/12/28 06:46:10;;;;;;;14.85;8.63;;;3.50;99.90;;;;;;5043546;28;20071;-71
2021/12/28 06:48:36;;;;;;;13.13;8.60;;;3.50;99.90;;;;;;5043133;28;20152;-70
2021/12/28 06:51:01;;;;;;;12.60;8.10;;;3.50;99.90;;;;;;5043314;28;20175;-71
2021/12/28 06:53:27;;;;;;;14.10;9.23;;;3.60;99.90;;;;;;5042785;28;20452;-71
2021/12/28 06:55:52;;;;;;;12.85;8.10;;;3.60;99.90;;;;;;5043124;28;20036;-71
2021/12/28 06:58:18;;;;;;;18.00;9.35;;;3.60;99.90;;;;;;5042567;28;20030;-71
2021/12/28 07:00:43;;;;;;;12.98;8.13;;;3.60;99.90;;;;;;5043092;28;20037;-70
2021/12/28 07:03:09;;;;;;;15.90;10.18;;;3.50;99.90;;;;;;5042833;28;20389;-71
2021/12/28 07:05:34;;;;;;;13.27;8.50;;;3.50;99.90;;;;;;5042584;28;20087;-70
2021/12/28 07:08:01;;;;;;;13.77;8.27;;;3.50;99.90;;;;;;5042707;28;20022;-71
2021/12/28 07:10:26;;;;;;;12.98;8.23;;;3.50;99.90;;;;;;5042586;28;20029;-71
2021/12/28 07:12:53;;;;;;;14.23;8.68;;;3.50;99.90;;;;;;5042007;28;20033;-70
2021/12/28 07:15:21;;;;;;;12.18;9.10;;;3.50;99.90;;;;;;5041832;28;20383;-71
2021/12/28 07:17:48;;;;;;;13.55;8.98;;;3.50;99.90;;;;;;5042221;28;20495;-71
2021/12/28 07:20:14;;;;;;;15.65;10.45;;;3.50;99.90;;;;;;5041927;28;20030;-70
2021/12/28 07:22:40;;;;;;;13.27;8.93;;;3.50;99.90;;;;;;5041739;28;20016;-71
2021/12/28 07:25:07;;;;;;;16.48;8.95;;;3.50;99.90;;;;;;5041909;28;20078;-70
2021/12/28 07:27:33;;;;;;;12.35;7.75;;;3.50;99.90;;;;;;5041759;28;20468;-70
2021/12/28 07:29:59;;;;;;;12.98;8.45;;;3.50;99.90;;;;;;5041600;28;20028;-71
2021/12/28 07:32:24;;;;;;;12.85;7.38;;;3.50;99.90;;;;;;5023823;28;20030;-70
2021/12/28 07:34:50;;;;;;;12.32;7.82;;;3.50;99.90;;;;;;5041065;28;20378;-71
2021/12/28 07:37:15;;;;;;;14.27;8.13;;;3.50;99.90;;;;;;5042152;28;20469;-70
2021/12/28 07:39:41;;;;;;;12.63;8.00;;;3.50;99.90;;;;;;5042322;28;20033;-70
2021/12/28 07:42:07;;;;;;;16.30;8.60;;;3.50;99.90;;;;;;5042320;28;20435;-71
2021/12/28 07:44:33;;;;;;;14.00;8.57;;;3.50;99.90;;;;;;5041901;28;20033;-70
2021/12/28 07:46:58;;;;;;;;;;;3.50;99.90;;;;;;5041965;28;20474;-70
2021/12/28 07:49:24;;;;;;;14.07;7.85;;;3.50;99.90;;;;;;5042367;28;19928;-70
2021/12/28 07:51:50;;;;;;;12.00;7.40;;;3.50;99.90;;;;;;5042122;28;20536;-71
2021/12/28 07:54:16;;;;;;;17.98;9.50;;;3.50;99.90;;;;;;5041850;28;20545;-70
2021/12/28 07:56:41;;;;;;;13.65;8.38;;;3.50;99.90;;;;;;5041940;28;20036;-71
2021/12/28 07:59:07;;;;;;;15.48;8.55;;;3.50;99.90;;;;;;5041804;28;20032;-70
2021/12/28 08:01:34;;;;;;;15.95;9.13;;;3.50;99.90;;;;;;5041773;28;20448;-71
2021/12/28 08:04:00;;;;;;;19.20;8.80;;;3.40;99.90;;;;;;5041484;28;20564;-70
2021/12/28 08:06:26;;;;;;;;;;;3.40;99.90;;;;;;5042026;28;20397;-70
2021/12/28 08:08:51;;;;;;;25.08;13.48;;;3.40;99.90;;;;;;5041487;28;19905;-70
2021/12/28 08:11:17;;;;;;;29.40;16.60;;;3.40;99.90;;;;;;5041461;28;20029;-70
2021/12/28 08:13:42;;;;;;;40.47;21.70;;;3.40;99.90;;;;;;5041504;28;20120;-70
2021/12/28 08:16:08;;;;;;;31.45;17.42;;;3.40;99.90;;;;;;5041547;28;20025;-70
2021/12/28 08:18:33;;;;;;;23.05;12.07;;;3.40;99.90;;;;;;5041210;28;20262;-71
2021/12/28 08:20:59;;;;;;;26.38;14.40;;;3.50;99.90;;;;;;5041100;28;20040;-70
2021/12/28 08:23:25;;;;;;;15.60;8.75;;;3.50;99.90;;;;;;5040928;28;20029;-70
2021/12/28 08:25:50;;;;;;;17.00;10.05;;;3.50;99.90;;;;;;5041101;28;20021;-70
2021/12/28 08:28:16;;;;;;;18.25;10.48;;;3.50;99.90;;;;;;5040924;28;20021;-71
2021/12/28 08:30:42;;;;;;;13.30;7.75;;;3.50;99.90;;;;;;5040770;28;20116;-70
2021/12/28 08:33:09;;;;;;;17.48;9.68;;;3.60;99.90;;;;;;5040826;28;20036;-70
2021/12/28 08:35:39;;;;;;;14.68;8.70;;;3.60;99.90;;;;;;5040160;28;20044;-71
2021/12/28 08:38:05;;;;;;;15.27;8.27;;;3.70;99.90;;;;;;5041075;28;20021;-70
2021/12/28 08:40:31;;;;;;;14.07;7.80;;;3.70;99.90;;;;;;5041366;28;20025;-70
2021/12/28 08:42:57;;;;;;;12.70;8.15;;;3.70;99.90;;;;;;5041156;28;20034;-70
2021/12/28 08:45:22;;;;;;;17.27;8.00;;;3.80;99.90;;;;;;5041148;28;20033;-70
2021/12/28 08:47:49;;;;;;;18.48;11.13;;;3.80;99.90;;;;;;5040926;28;20026;-71
2021/12/28 08:50:17;;;;;;;16.52;8.40;;;3.90;99.90;;;;;;5040941;28;20162;-70
2021/12/28 08:52:44;;;;;;;14.20;8.07;;;4.00;99.90;;;;;;5041037;28;20039;-71
2021/12/28 08:55:09;;;;;;;14.23;9.13;;;4.10;99.90;;;;;;5040324;28;20039;-70
2021/12/28 08:57:36;;;;;;;15.63;8.20;;;4.20;99.90;;;;;;5040634;28;20478;-70
2021/12/28 09:00:14;;;;;;;11.77;8.32;;;4.20;99.90;;;;;;5039585;28;20390;-71
2021/12/28 09:02:40;;;;;;;12.73;7.93;;;4.40;99.90;;;;;;5040167;28;20428;-70
2021/12/28 09:05:06;;;;;;;13.90;7.45;;;4.50;99.90;;;;;;5040509;28;20030;-71
2021/12/28 09:07:32;;;;;;;10.63;6.38;;;4.60;99.90;;;;;;5040276;28;20374;-70
2021/12/28 09:09:59;;;;;;;12.70;6.70;;;4.60;99.90;;;;;;5040294;28;20087;-70
2021/12/28 09:12:24;;;;;;;12.00;6.68;;;4.70;99.90;;;;;;5039988;28;20117;-70
2021/12/28 09:14:50;;;;;;;12.23;6.45;;;4.80;99.90;;;;;;5040118;28;20111;-70
2021/12/28 09:17:15;;;;;;;14.27;7.90;;;4.90;99.90;;;;;;5040261;28;20055;-70
2021/12/28 09:19:41;;;;;;;10.63;6.63;;;5.00;99.90;;;;;;5040110;28;20108;-70
2021/12/28 09:22:06;;;;;;;13.02;6.82;;;5.10;99.90;;;;;;5039777;28;20037;-70
2021/12/28 09:24:33;;;;;;;12.63;6.15;;;5.10;99.90;;;;;;5039535;28;20025;-70
2021/12/28 09:26:58;;;;;;;;;;;5.20;99.90;;;;;;5040099;28;20021;-70
2021/12/28 09:29:29;;;;;;;15.77;6.13;;;5.20;99.90;;;;;;5006003;28;19909;-71
2021/12/28 09:31:56;;;;;;;10.18;6.68;;;5.20;99.90;;;;;;5039584;28;20031;-70
2021/12/28 09:34:22;;;;;;;11.40;6.18;;;5.20;99.90;;;;;;5038909;28;20043;-70
2021/12/28 09:36:47;;;;;;;12.02;6.72;;;5.30;99.90;;;;;;5040206;28;20021;-70
2021/12/28 09:39:13;;;;;;;13.88;6.85;;;5.30;99.90;;;;;;5040160;28;20029;-70
2021/12/28 09:41:39;;;;;;;16.38;7.78;;;5.40;99.90;;;;;;5039751;28;20025;-70
2021/12/28 09:44:04;;;;;;;16.02;9.82;;;5.40;99.90;;;;;;5039915;28;20052;-70
2021/12/28 09:46:30;;;;;;;22.10;10.35;;;5.40;99.90;;;;;;5039787;28;20544;-70
2021/12/28 09:48:56;;;;;;;16.23;7.97;;;5.40;99.90;;;;;;5039934;28;20029;-71
2021/12/28 09:51:21;;;;;;;12.35;8.57;;;5.40;99.90;;;;;;5022009;28;20061;-71
2021/12/28 09:53:47;;;;;;;13.48;7.35;;;5.40;99.90;;;;;;5039539;28;20022;-70
2021/12/28 09:56:12;;;;;;;14.40;7.35;;;5.50;99.90;;;;;;5039860;28;20057;-70
2021/12/28 09:58:40;;;;;;;15.23;7.05;;;5.50;99.90;;;;;;5039756;28;20535;-70
2021/12/28 10:01:07;;;;;;;13.55;6.00;;;5.50;99.90;;;;;;5039265;28;20083;-70
2021/12/28 10:03:33;;;;;;;11.02;5.82;;;5.60;99.90;;;;;;5021717;28;20450;-70
2021/12/28 10:05:59;;;;;;;;;;;5.60;99.90;;;;;;5039643;28;20037;-70
2021/12/28 10:08:26;;;;;;;13.02;5.97;;;5.60;99.90;;;;;;5038784;28;19905;-70
2021/12/28 10:10:57;;;;;;;13.50;5.70;;;5.70;99.90;;;;;;5038532;28;20032;-70
2021/12/28 10:13:26;;;;;;;11.18;6.43;;;5.70;99.90;;;;;;5038991;28;20207;-70
2021/12/28 10:15:52;;;;;;;21.90;8.25;;;5.70;99.90;;;;;;5039026;28;20013;-70
2021/12/28 10:18:18;;;;;;;15.10;7.15;;;5.70;99.90;;;;;;5038835;28;20513;-70
2021/12/28 10:20:46;;;;;;;11.25;6.25;;;5.80;99.90;;;;;;5038957;28;20052;-70
2021/12/28 10:23:18;;;;;;;14.77;7.72;;;5.80;99.90;;;;;;5038718;28;20022;-70
2021/12/28 10:25:47;;;;;;;11.32;6.25;;;5.80;99.90;;;;;;5038899;28;20032;-70
2021/12/28 10:28:38;;;;;;;12.65;6.40;;;5.70;99.90;;;;;;5038821;28;20466;-71
2021/12/28 10:31:18;;;;;;;16.17;6.63;;;5.70;99.90;;;;;;5038656;28;20124;-70
2021/12/28 10:33:44;;;;;;;12.00;6.57;;;5.70;99.90;;;;;;5020998;28;20375;-70
2021/12/28 10:36:13;;;;;;;;;;;5.70;99.90;;;;;;5055897;22;20058;-69
2021/12/28 10:38:45;;;;;;;11.27;6.03;;;5.80;99.90;;;;;;5038967;28;19966;-69
2021/12/28 10:41:14;;;;;;;12.52;6.00;;;5.80;99.90;;;;;;5039524;28;20029;-69
2021/12/28 10:43:45;;;;;;;13.38;6.68;;;5.80;99.90;;;;;;5039322;28;20104;-69
2021/12/28 10:46:14;;;;;;;13.40;6.57;;;5.90;99.90;;;;;;5039277;28;20543;-69
2021/12/28 10:48:47;;;;;;;11.43;6.45;;;6.00;99.90;;;;;;5038860;28;20108;-69
2021/12/28 10:51:20;;;;;;;13.80;5.93;;;6.00;99.90;;;;;;5039276;28;20056;-69
2021/12/28 10:54:07;;;;;;;13.82;6.60;;;6.10;99.90;;;;;;5039482;28;20084;-69
2021/12/28 10:56:37;;;;;;;11.23;6.65;;;6.10;99.90;;;;;;5038849;28;20043;-69
2021/12/28 10:59:05;;;;;;;8.95;6.25;;;6.20;99.90;;;;;;5039215;28;20048;-69
2021/12/28 11:01:34;;;;;;;16.42;7.47;;;6.20;99.90;;;;;;5038090;28;20041;-69
2021/12/28 11:04:04;;;;;;;12.48;6.78;;;6.20;99.90;;;;;;5039033;28;20563;-69
2021/12/28 11:06:32;;;;;;;12.70;6.60;;;6.20;99.90;;;;;;5038522;28;20033;-69
2021/12/28 11:09:25;;;;;;;12.05;6.55;;;6.30;99.90;;;;;;5038500;28;20033;-69
2021/12/28 11:11:56;;;;;;;9.90;5.57;;;6.30;99.90;;;;;;5038734;28;20493;-69
2021/12/28 11:14:24;;;;;;;16.83;8.57;;;6.30;99.90;;;;;;5038072;28;20025;-69
2021/12/28 11:16:54;;;;;;;10.75;6.10;;;6.30;99.90;;;;;;5038243;28;20024;-69
2021/12/28 11:19:35;;;;;;;12.95;6.20;;;6.40;99.90;;;;;;5037620;28;20033;-69
2021/12/28 11:22:06;;;;;;;13.70;7.18;;;6.40;99.90;;;;;;5038746;28;20528;-69
2021/12/28 11:24:47;;;;;;;10.55;6.28;;;6.50;99.90;;;;;;5041085;28;20384;-69
2021/12/28 11:27:27;;;;;;;8.18;5.47;;;6.50;99.90;;;;;;5041884;28;20017;-69
2021/12/28 11:29:53;;;;;;;12.13;5.88;;;6.50;99.90;;;;;;5025066;28;20025;-69
2021/12/28 11:32:20;;;;;;;12.52;6.03;;;6.50;99.90;;;;;;5042098;28;20040;-68
2021/12/28 11:34:46;;;;;;;14.68;5.93;;;6.50;99.90;;;;;;5042358;28;20084;-69
2021/12/28 11:37:14;;;;;;;;;;;6.50;99.90;;;;;;5043151;28;20036;-69
2021/12/28 11:39:44;;;;;;;13.45;4.43;;;6.50;99.90;;;;;;5042393;28;19909;-69
2021/12/28 11:42:12;;;;;;;14.32;6.55;;;6.50;99.90;;;;;;5042352;28;20029;-69
2021/12/28 11:44:38;;;;;;;8.52;4.88;;;6.50;99.90;;;;;;5042352;28;20509;-68
2021/12/28 11:47:06;;;;;;;7.03;5.00;;;6.50;99.90;;;;;;5042674;28;20076;-69
2021/12/28 11:49:32;;;;;;;11.65;5.43;;;6.50;99.90;;;;;;5042096;28;20032;-69
2021/12/28 11:51:59;;;;;;;;;;;6.40;99.90;;;;;;5042578;28;20049;-69
2021/12/28 11:54:26;;;;;;;9.23;5.57;;;6.50;99.90;;;;;;5041379;28;19959;-69
2021/12/28 11:56:59;;;;;;;9.38;4.68;;;6.50;99.90;;;;;;5041641;28;20152;-69
2021/12/28 11:59:28;;;;;;;16.00;6.40;;;6.40;99.90;;;;;;5040066;28;20044;-68
2021/12/28 12:01:58;;;;;;;13.10;6.88;;;6.40;99.90;;;;;;5024155;28;20497;-68
2021/12/28 12:04:42;;;;;;;12.02;6.03;;;6.40;99.90;;;;;;5041055;28;20018;-68
2021/12/28 12:07:14;;;;;;;10.60;5.85;;;6.40;99.90;;;;;;5041415;28;20024;-69
2021/12/28 12:09:48;;;;;;;9.40;5.47;;;6.40;99.90;;;;;;5040804;28;20370;-69
2021/12/28 12:12:18;;;;;;;10.85;5.20;;;6.40;99.90;;;;;;5041071;28;20037;-69
2021/12/28 12:14:50;;;;;;;9.25;4.97;;;6.40;99.90;;;;;;5041479;28;20051;-69
2021/12/28 12:17:28;;;;;;;10.88;5.32;;;6.40;99.90;;;;;;5041308;28;20117;-68
2021/12/28 12:20:02;;;;;;;12.77;6.07;;;6.50;99.90;;;;;;5040937;28;20025;-68
2021/12/28 12:23:00;;;;;;;12.00;5.93;;;6.60;99.90;;;;;;5040696;28;20053;-69
2021/12/28 12:25:42;;;;;;;;;;;6.70;99.90;;;;;;4998931;28;20033;-69
2021/12/28 12:28:10;;;;;;;6.60;4.07;;;6.70;99.90;;;;;;5040387;28;20365;-69
2021/12/28 12:30:46;;;;;;;7.53;4.65;;;6.80;99.90;;;;;;5039904;28;20031;-69
2021/12/28 12:33:13;;;;;;;;;;;6.80;99.90;;;;;;5040655;28;20026;-68
2021/12/28 12:35:55;;;;;;;7.32;4.95;;;6.90;99.90;;;;;;5040493;28;19916;-68
2021/12/28 12:38:24;;;;;;;10.68;5.43;;;6.90;99.90;;;;;;5041015;28;20280;-72
2021/12/28 12:41:02;;;;;;;10.82;4.82;;;6.90;99.90;;;;;;5041802;28;20070;-71
2021/12/28 12:43:44;;;;;;;7.43;4.65;;;7.00;99.90;;;;;;5040792;28;20025;-70
2021/12/28 12:46:12;;;;;;;9.13;4.65;;;7.00;99.90;;;;;;5040774;28;20021;-70
2021/12/28 12:48:40;;;;;;;10.55;4.68;;;7.00;99.90;;;;;;5040938;28;20029;-71
2021/12/28 12:51:24;;;;;;;9.50;4.80;;;7.00;99.90;;;;;;5023152;28;20474;-70
2021/12/28 12:53:59;;;;;;;9.02;4.40;;;7.00;99.90;;;;;;5041066;28;20052;-70